Tillar, Arkansas
Current Conditions -  °F | °C
As of 9:53 AM on Friday 19 Dec 2014 (Local Time) from KLLQ Reporting Station
Overcast Overcast  
Wind Chill: 41°   Ceiling: 4000
Heat Index: 45°   Visibility: 10mi
Dew Point: 40°   Wind: 8mph
Humidity: 82%   Direction: 50°NE
Pressure: 30.24"   Gusts: NA
Location:  33.71°N, 91.45°W
Report Text: KLLQ 191553Z AUTO 05007KT 10SM OVC040 07/04 A3024 RMK AO2 SLP241 T00720044
Loading
Personal Weather Stations






























Interactive Weather Map New forecast layout! Learn more

10-Day Weather Forecast

Advertisements
Track Severe Weather on mobile